Time;durP1;ratioP1;P1;durP2;ratioP2;P2;SDS_P1;SDS_P2;PMS_P1;PMS_P2;Temp;Humidity;BMP_temperature;BMP_pressure;BME280_temperature;BME280_humidity;BME280_pressure;Samples;Min_cycle;Max_cycle;Signal;HPM_P1;HPM_P2
2022/10/11 00:00:13;;;;;;;;;;;;;;;;;;5137646;27;19966;-77
2022/10/11 00:02:38;;;;;;;;;;;;;;;;;;5137154;27;19951;-77
2022/10/11 00:05:04;;;;;;;;;;;;;;;;;;5138259;27;20279;-77
2022/10/11 00:07:29;;;;;;;;;;;;;;;;;;5138196;27;19916;-77
2022/10/11 00:09:54;;;;;;;;;;;;;;;;;;5138003;27;20221;-76
2022/10/11 00:12:20;;;;;;;;;;;;;;;;;;5137920;27;20343;-77
2022/10/11 00:14:45;;;;;;;;;;;;;;;;;;5137439;27;19991;-77
2022/10/11 00:17:10;;;;;;;;;;;;;;;;;;5137674;27;19915;-77
2022/10/11 00:19:36;;;;;;;;;;;;;;;;;;5137932;27;19915;-77
2022/10/11 00:22:01;;;;;;;;;;;;;;;;;;5137970;27;19915;-76
2022/10/11 00:24:26;;;;;;;;;;;;;;;;;;5137568;27;20328;-76
2022/10/11 00:26:52;;;;;;;;;;;;;;;;;;5137448;27;20014;-77
2022/10/11 00:29:17;;;;;;;;;;;;;;;;;;5137247;27;19923;-76
2022/10/11 00:31:43;;;;;;;;;;;;;;;;;;5137720;27;19923;-77
2022/10/11 00:34:10;;;;;;;;;;;;;;;;;;5136352;27;20275;-77
2022/10/11 00:36:36;;;;;;;;;;;;;;;;;;5136607;27;20340;-77
2022/10/11 00:39:01;;;;;;;;;;;;;;;;;;5137436;27;19923;-77
2022/10/11 00:41:27;;;;;;;;;;;;;;;;;;5136076;27;19915;-77
2022/10/11 00:44:08;;;;;;;;;;;;;;;;;;5137085;27;19916;-77
2022/10/11 00:46:33;;;;;;;;;;;;;;;;;;5137270;27;19923;-77
2022/10/11 00:49:00;;;;;;;;;;;;;;;;;;5136027;27;20550;-77
2022/10/11 00:51:28;;;;;;;;;;;;;;;;;;5137063;27;19915;-77
2022/10/11 00:53:54;;;;;;;;;;;;;;;;;;5137091;27;19922;-77
2022/10/11 00:56:22;;;;;;;;;;;;;;;;;;5137049;27;20002;-77
2022/10/11 00:58:48;;;;;;;;;;;;;;;;;;5136783;27;20306;-77
2022/10/11 01:01:13;;;;;;;;;;;;;;;;;;5136905;27;19916;-77
2022/10/11 01:03:38;;;;;;;;;;;;;;;;;;5136750;27;20292;-77
2022/10/11 01:06:04;;;;;;;;;;;;;;;;;;5136766;27;19916;-77
2022/10/11 01:08:29;;;;;;;;;;;;;;;;;;5136609;27;20285;-77
2022/10/11 01:10:54;;;;;;;;;;;;;;;;;;5137088;27;19935;-78
2022/10/11 01:13:39;;;;;;;;;;;;;;;;;;5135739;27;19915;-77
2022/10/11 01:16:07;;;;;;;;;;;;;;;;;;5137308;27;19923;-77
2022/10/11 01:18:42;;;;;;;;;;;;;;;;;;5139091;27;20010;-77
2022/10/11 01:21:11;;;;;;;;;;;;;;;;;;5138946;27;20404;-77
2022/10/11 01:23:48;;;;;;;;;;;;;;;;;;5139029;27;19922;-77
2022/10/11 01:26:23;;;;;;;;;;;;;;;;;;5136567;27;19920;-77
2022/10/11 01:28:57;;;;;;;;;;;;;;;;;;5136137;27;20282;-77
2022/10/11 01:31:24;;;;;;;;;;;;;;;;;;5117952;27;19964;-77
2022/10/11 01:33:51;;;;;;;;;;;;;;;;;;5135030;27;19921;-77
2022/10/11 01:36:26;;;;;;;;;;;;;;;;;;5134789;27;20339;-77
2022/10/11 01:38:59;;;;;;;;;;;;;;;;;;5135967;27;19915;-77
2022/10/11 01:41:26;;;;;;;;;;;;;;;;;;5134561;27;20241;-77
2022/10/11 01:43:52;;;;;;;;;;;;;;;;;;5134858;27;19916;-77
2022/10/11 01:46:18;;;;;;;;;;;;;;;;;;5135970;27;19916;-77
2022/10/11 01:48:50;;;;;;;;;;;;;;;;;;5136110;27;19922;-77
2022/10/11 01:51:16;;;;;;;;;;;;;;;;;;5136044;27;20329;-76
2022/10/11 01:54:00;;;;;;;;;;;;;;;;;;5134453;27;19923;-77
2022/10/11 01:56:32;;;;;;;;;;;;;;;;;;5135389;27;20329;-77
2022/10/11 01:59:00;;;;;;;;;;;;;;;;;;5135631;27;19919;-77
2022/10/11 02:01:31;;;;;;;;;;;;;;;;;;5134534;27;19916;-77
2022/10/11 02:04:05;;;;;;;;;;;;;;;;;;5134531;27;20363;-77
2022/10/11 02:06:33;;;;;;;;;;;;;;;;;;5135439;27;19922;-77
2022/10/11 02:09:10;;;;;;;;;;;;;;;;;;5135663;27;19916;-77
2022/10/11 02:11:36;;;;;;;;;;;;;;;;;;5135502;27;20316;-77
2022/10/11 02:14:11;;;;;;;;;;;;;;;;;;5134099;27;19966;-77
2022/10/11 02:17:09;;;;;;;;;;;;;;;;;;5135370;27;20344;-77
2022/10/11 02:19:35;;;;;;;;;;;;;;;;;;5110966;27;20316;-77
2022/10/11 02:22:02;;;;;;;;;;;;;;;;;;5135598;27;20320;-77
2022/10/11 02:24:29;;;;;;;;;;;;;;;;;;5133839;28;19922;-77
2022/10/11 02:26:54;;;;;;;;;;;;;;;;;;5134049;28;20006;-77
2022/10/11 02:29:20;;;;;;;;;;;;;;;;;;5135477;27;19915;-77
2022/10/11 02:31:46;;;;;;;;;;;;;;;;;;5134000;28;19922;-77
2022/10/11 02:34:14;;;;;;;;;;;;;;;;;;5135230;27;19923;-77
2022/10/11 02:36:48;;;;;;;;;;;;;;;;;;5117203;28;19964;-77
2022/10/11 02:39:15;;;;;;;;;;;;;;;;;;5134801;27;19947;-77
2022/10/11 02:41:42;;;;;;;;;;;;;;;;;;5133826;28;19915;-77
2022/10/11 02:44:23;;;;;;;;;;;;;;;;;;5133927;28;20277;-77
2022/10/11 02:46:49;;;;;;;;;;;;;;;;;;5116827;28;19954;-77
2022/10/11 02:49:14;;;;;;;;;;;;;;;;;;5135012;27;19915;-77
2022/10/11 02:51:39;;;;;;;;;;;;;;;;;;5134060;28;20240;-77
2022/10/11 02:56:49;;;;;;;;;;;;;;;;;;5134776;28;19930;-77
2022/10/11 02:59:14;;;;;;;;;;;;;;;;;;5134859;27;19920;-77
2022/10/11 03:01:39;;;;;;;;;;;;;;;;;;5134840;27;19923;-77
2022/10/11 03:04:05;;;;;;;;;;;;;;;;;;5134808;27;19916;-78
2022/10/11 03:06:30;;;;;;;;;;;;;;;;;;5134864;27;19915;-77
2022/10/11 03:08:55;;;;;;;;;;;;;;;;;;5134532;28;19939;-77
2022/10/11 03:11:21;;;;;;;;;;;;;;;;;;5134780;27;20016;-76
2022/10/11 03:13:46;;;;;;;;;;;;;;;;;;5134747;27;19919;-77
2022/10/11 03:16:11;;;;;;;;;;;;;;;;;;5135019;27;20393;-77
2022/10/11 03:18:37;;;;;;;;;;;;;;;;;;5134947;27;19915;-77
2022/10/11 03:21:02;;;;;;;;;;;;;;;;;;5133507;28;20006;-77
2022/10/11 03:23:28;;;;;;;;;;;;;;;;;;5133381;28;19916;-77
2022/10/11 03:25:53;;;;;;;;;;;;;;;;;;5134577;27;20262;-77
2022/10/11 03:28:19;;;;;;;;;;;;;;;;;;5134955;27;20356;-77
2022/10/11 03:30:47;;;;;;;;;;;;;;;;;;5137043;27;20256;-77
2022/10/11 03:33:13;;;;;;;;;;;;;;;;;;5138612;27;20010;-77
2022/10/11 03:35:39;;;;;;;;;;;;;;;;;;5138346;27;19950;-76
2022/10/11 03:38:05;;;;;;;;;;;;;;;;;;5138053;27;19915;-77
2022/10/11 03:40:30;;;;;;;;;;;;;;;;;;5136941;27;19922;-77
2022/10/11 03:42:56;;;;;;;;;;;;;;;;;;5138135;27;20328;-77
2022/10/11 03:45:22;;;;;;;;;;;;;;;;;;5138176;27;19972;-77
2022/10/11 03:47:47;;;;;;;;;;;;;;;;;;5138063;27;19915;-77
2022/10/11 03:50:13;;;;;;;;;;;;;;;;;;5137000;27;19916;-77
2022/10/11 03:52:38;;;;;;;;;;;;;;;;;;5138020;27;19915;-77
2022/10/11 03:55:04;;;;;;;;;;;;;;;;;;5137966;27;20032;-77
2022/10/11 03:57:29;;;;;;;;;;;;;;;;;;5137753;27;19971;-77
2022/10/11 03:59:55;;;;;;;;;;;;;;;;;;5137824;27;19915;-77
2022/10/11 04:02:20;;;;;;;;;;;;;;;;;;5137021;27;20388;-76
2022/10/11 04:04:45;;;;;;;;;;;;;;;;;;5124145;27;20328;-76
2022/10/11 04:07:11;;;;;;;;;;;;;;;;;;5135826;27;20487;-76
2022/10/11 04:09:36;;;;;;;;;;;;;;;;;;5136887;27;20002;-76
2022/10/11 04:12:02;;;;;;;;;;;;;;;;;;5137143;27;19923;-76
2022/10/11 04:14:28;;;;;;;;;;;;;;;;;;5136503;27;19919;-76
2022/10/11 04:16:53;;;;;;;;;;;;;;;;;;5136591;27;19915;-76
2022/10/11 04:19:19;;;;;;;;;;;;;;;;;;5136763;27;19919;-76
2022/10/11 04:21:44;;;;;;;;;;;;;;;;;;5136472;27;20367;-76
2022/10/11 04:24:10;;;;;;;;;;;;;;;;;;5135553;27;19915;-76
2022/10/11 04:26:35;;;;;;;;;;;;;;;;;;5136624;27;19915;-76
2022/10/11 04:29:01;;;;;;;;;;;;;;;;;;5136253;27;19915;-76
2022/10/11 04:31:26;;;;;;;;;;;;;;;;;;5136649;27;19966;-76
2022/10/11 04:33:51;;;;;;;;;;;;;;;;;;5136581;27;19915;-76
2022/10/11 04:36:16;;;;;;;;;;;;;;;;;;5136638;27;19926;-76
2022/10/11 04:38:42;;;;;;;;;;;;;;;;;;5136609;27;19927;-76
2022/10/11 04:41:08;;;;;;;;;;;;;;;;;;5139580;27;19915;-77
2022/10/11 04:43:33;;;;;;;;;;;;;;;;;;5138943;27;20077;-77
2022/10/11 04:45:58;;;;;;;;;;;;;;;;;;5136100;27;19915;-76
2022/10/11 04:48:24;;;;;;;;;;;;;;;;;;5137214;27;19916;-76
2022/10/11 04:50:49;;;;;;;;;;;;;;;;;;5139844;27;20012;-75
2022/10/11 04:53:15;;;;;;;;;;;;;;;;;;5122042;27;19969;-76
2022/10/11 04:55:41;;;;;;;;;;;;;;;;;;5130568;27;20004;-74
2022/10/11 04:58:06;;;;;;;;;;;;;;;;;;5131649;27;19923;-78
2022/10/11 05:00:32;;;;;;;;;;;;;;;;;;5141805;27;19944;-77
2022/10/11 05:02:58;;;;;;;;;;;;;;;;;;5136676;27;20005;-78
2022/10/11 05:05:23;;;;;;;;;;;;;;;;;;5131027;27;19966;-75
2022/10/11 05:07:48;;;;;;;;;;;;;;;;;;5127053;27;19919;-78
2022/10/11 05:10:14;;;;;;;;;;;;;;;;;;5132280;27;19920;-78
2022/10/11 05:12:39;;;;;;;;;;;;;;;;;;5130415;27;19927;-77
2022/10/11 05:15:05;;;;;;;;;;;;;;;;;;5143866;27;19942;-77
2022/10/11 05:17:31;;;;;;;;;;;;;;;;;;5138237;27;19919;-77
2022/10/11 05:19:56;;;;;;;;;;;;;;;;;;5135058;27;19926;-78
2022/10/11 05:22:25;;;;;;;;;;;;;;;;;;5137431;27;19923;-78
2022/10/11 05:24:50;;;;;;;;;;;;;;;;;;5121907;27;20013;-78
2022/10/11 05:27:21;;;;;;;;;;;;;;;;;;5135165;27;19978;-80
2022/10/11 05:29:47;;;;;;;;;;;;;;;;;;5138657;27;19919;-77
2022/10/11 05:32:13;;;;;;;;;;;;;;;;;;5139615;27;19951;-77
2022/10/11 05:34:38;;;;;;;;;;;;;;;;;;5139313;27;19920;-77
2022/10/11 05:37:04;;;;;;;;;;;;;;;;;;5138900;27;19920;-78
2022/10/11 05:39:29;;;;;;;;;;;;;;;;;;5136927;27;19919;-78
2022/10/11 05:41:55;;;;;;;;;;;;;;;;;;5140579;27;20365;-78
2022/10/11 05:44:20;;;;;;;;;;;;;;;;;;5113943;27;19920;-78
2022/10/11 05:46:46;;;;;;;;;;;;;;;;;;5129045;27;19974;-78
2022/10/11 05:49:15;;;;;;;;;;;;;;;;;;5129768;27;19927;-78
2022/10/11 05:51:41;;;;;;;;;;;;;;;;;;5133590;27;20279;-79
2022/10/11 05:54:06;;;;;;;;;;;;;;;;;;5125805;27;20025;-76
2022/10/11 05:56:31;;;;;;;;;;;;;;;;;;5132656;27;20018;-79
2022/10/11 05:58:57;;;;;;;;;;;;;;;;;;5129857;27;20101;-76
2022/10/11 06:01:24;;;;;;;;;;;;;;;;;;5129667;27;19920;-77
2022/10/11 06:03:49;;;;;;;;;;;;;;;;;;5128813;27;20301;-78
2022/10/11 06:06:14;;;;;;;;;;;;;;;;;;5133723;27;19915;-75
2022/10/11 06:11:44;;;;;;;;;;;;;;;;;;5133652;27;19974;-77
2022/10/11 06:14:10;;;;;;;;;;;;;;;;;;5130043;27;19958;-76
2022/10/11 06:16:35;;;;;;;;;;;;;;;;;;5129942;27;19980;-77
2022/10/11 06:19:01;;;;;;;;;;;;;;;;;;5138019;27;19919;-77
2022/10/11 06:21:26;;;;;;;;;;;;;;;;;;5145151;27;19919;-77
2022/10/11 06:23:52;;;;;;;;;;;;;;;;;;5133734;27;20302;-76
2022/10/11 06:26:17;;;;;;;;;;;;;;;;;;5145275;27;19926;-76
2022/10/11 06:28:43;;;;;;;;;;;;;;;;;;5126862;27;19919;-76
2022/10/11 06:31:08;;;;;;;;;;;;;;;;;;5152798;27;19915;-78
2022/10/11 06:33:33;;;;;;;;;;;;;;;;;;5137507;27;19950;-76
2022/10/11 06:35:59;;;;;;;;;;;;;;;;;;5126047;27;19919;-76
2022/10/11 06:38:25;;;;;;;;;;;;;;;;;;5132072;27;20260;-76
2022/10/11 06:40:50;;;;;;;;;;;;;;;;;;5130949;27;20440;-78
2022/10/11 06:43:21;;;;;;;;;;;;;;;;;;5128591;27;20515;-77
2022/10/11 06:45:47;;;;;;;;;;;;;;;;;;5115357;27;19950;-77
2022/10/11 06:48:12;;;;;;;;;;;;;;;;;;5128169;27;20320;-78
2022/10/11 06:50:38;;;;;;;;;;;;;;;;;;5133944;27;21155;-77
2022/10/11 06:53:06;;;;;;;;;;;;;;;;;;5132829;27;20042;-79
2022/10/11 06:55:32;;;;;;;;;;;;;;;;;;5130115;28;19919;-77
2022/10/11 06:57:58;;;;;;;;;;;;;;;;;;5129661;28;20431;-77
2022/10/11 07:00:24;;;;;;;;;;;;;;;;;;5131349;27;19923;-77
2022/10/11 07:02:49;;;;;;;;;;;;;;;;;;5131020;27;20428;-77
2022/10/11 07:05:15;;;;;;;;;;;;;;;;;;5133348;27;20387;-77
2022/10/11 07:07:40;;;;;;;;;;;;;;;;;;5141183;27;19920;-77
2022/10/11 07:10:06;;;;;;;;;;;;;;;;;;5113352;28;19930;-78
2022/10/11 07:12:31;;;;;;;;;;;;;;;;;;5149687;27;19915;-78
2022/10/11 07:14:56;;;;;;;;;;;;;;;;;;5153490;27;20256;-79
2022/10/11 07:17:22;;;;;;;;;;;;;;;;;;5130953;28;20414;-79
2022/10/11 07:19:47;;;;;;;;;;;;;;;;;;5158485;27;19929;-79
2022/10/11 07:22:12;;;;;;;;;;;;;;;;;;5160175;27;20178;-78
2022/10/11 07:24:37;;;;;;;;;;;;;;;;;;5138198;27;19963;-78
2022/10/11 07:27:03;;;;;;;;;;;;;;;;;;5124317;27;19951;-80
2022/10/11 07:29:28;;;;;;;;;;;;;;;;;;5115439;28;19916;-80
2022/10/11 07:31:54;;;;;;;;;;;;;;;;;;5119280;27;20325;-78
2022/10/11 07:34:21;;;;;;;;;;;;;;;;;;5120213;27;20371;-76
2022/10/11 07:36:47;;;;;;;;;;;;;;;;;;5117876;28;20542;-78
2022/10/11 07:39:12;;;;;;;;;;;;;;;;;;5115732;27;19920;-79
2022/10/11 07:41:38;;;;;;;;;;;;;;;;;;5111162;28;20390;-78
2022/10/11 07:44:03;;;;;;;;;;;;;;;;;;5111563;28;20288;-80
2022/10/11 07:46:29;;;;;;;;;;;;;;;;;;5152737;27;20033;-79
2022/10/11 07:48:54;;;;;;;;;;;;;;;;;;5151182;27;19919;-78
2022/10/11 07:51:20;;;;;;;;;;;;;;;;;;5115668;27;19958;-78
2022/10/11 07:53:49;;;;;;;;;;;;;;;;;;5129278;27;19930;-78
2022/10/11 07:56:17;;;;;;;;;;;;;;;;;;5144619;27;19948;-79
2022/10/11 07:58:43;;;;;;;;;;;;;;;;;;5115055;27;19977;-78
2022/10/11 08:01:09;;;;;;;;;;;;;;;;;;5124034;27;19950;-79
2022/10/11 08:03:34;;;;;;;;;;;;;;;;;;5135637;27;19920;-78
2022/10/11 08:06:00;;;;;;;;;;;;;;;;;;5120052;27;20479;-78
2022/10/11 08:08:25;;;;;;;;;;;;;;;;;;5135422;27;19987;-76
2022/10/11 08:10:51;;;;;;;;;;;;;;;;;;5131188;27;20340;-78
2022/10/11 08:13:16;;;;;;;;;;;;;;;;;;5109216;27;20372;-77
2022/10/11 08:15:41;;;;;;;;;;;;;;;;;;5129451;27;19919;-78
2022/10/11 08:18:07;;;;;;;;;;;;;;;;;;5135672;27;19916;-79
2022/10/11 08:20:32;;;;;;;;;;;;;;;;;;5134288;27;19915;-79
2022/10/11 08:22:57;;;;;;;;;;;;;;;;;;5135519;27;19987;-77
2022/10/11 08:25:23;;;;;;;;;;;;;;;;;;5133681;27;20102;-77
2022/10/11 08:27:48;;;;;;;;;;;;;;;;;;5133847;27;19922;-77
2022/10/11 08:30:14;;;;;;;;;;;;;;;;;;5134271;27;20340;-78
2022/10/11 08:32:39;;;;;;;;;;;;;;;;;;5136619;27;19915;-77
2022/10/11 08:35:05;;;;;;;;;;;;;;;;;;5145520;27;19975;-78
2022/10/11 08:37:31;;;;;;;;;;;;;;;;;;5146619;27;19921;-78
2022/10/11 08:39:57;;;;;;;;;;;;;;;;;;5140797;27;19915;-77
2022/10/11 08:42:27;;;;;;;;;;;;;;;;;;5138680;27;20312;-77
2022/10/11 08:44:53;;;;;;;;;;;;;;;;;;5137374;27;20280;-76
2022/10/11 08:47:39;;;;;;;;;;;;;;;;;;5144154;27;19964;-75
2022/10/11 08:50:05;;;;;;;;;;;;;;;;;;5140136;27;20357;-74
2022/10/11 08:52:36;;;;;;;;;;;;;;;;;;5132676;27;19919;-76
2022/10/11 08:55:02;;;;;;;;;;;;;;;;;;5133827;27;19938;-76
2022/10/11 08:57:29;;;;;;;;;;;;;;;;;;5117044;27;19976;-76
2022/10/11 09:00:13;;;;;;;;;;;;;;;;;;5137715;27;20091;-78
2022/10/11 09:03:00;;;;;;;;;;;;;;;;;;5132608;27;19923;-78
2022/10/11 09:05:26;;;;;;;;;;;;;;;;;;5136988;27;19915;-78
2022/10/11 09:08:30;;;;;;;;;;;;;;;;;;5135651;27;20321;-78
2022/10/11 09:11:04;;;;;;;;;;;;;;;;;;5108739;28;20290;-78
2022/10/11 09:13:41;;;;;;;;;;;;;;;;;;5096247;28;19964;-77
2022/10/11 09:16:12;;;;;;;;;;;;;;;;;;5125287;27;20014;-78
2022/10/11 09:18:39;;;;;;;;;;;;;;;;;;5132106;27;20355;-77
2022/10/11 09:21:08;;;;;;;;;;;;;;;;;;5132306;27;20320;-78
2022/10/11 09:23:46;;;;;;;;;;;;;;;;;;5126201;27;19938;-77
2022/10/11 09:26:21;;;;;;;;;;;;;;;;;;5129117;27;20278;-77
2022/10/11 09:29:05;;;;;;;;;;;;;;;;;;5121175;27;19965;-77
2022/10/11 09:31:30;;;;;;;;;;;;;;;;;;5121645;27;19950;-76
2022/10/11 09:33:56;;;;;;;;;;;;;;;;;;5126905;27;19946;-78
2022/10/11 09:36:25;;;;;;;;;;;;;;;;;;5129750;27;19920;-77
2022/10/11 09:38:55;;;;;;;;;;;;;;;;;;5127017;27;19919;-78
2022/10/11 09:41:33;;;;;;;;;;;;;;;;;;5111593;28;19915;-78
2022/10/11 09:43:59;;;;;;;;;;;;;;;;;;5130001;27;19919;-75
2022/10/11 09:46:33;;;;;;;;;;;;;;;;;;5134260;27;20002;-75
2022/10/11 09:49:06;;;;;;;;;;;;;;;;;;5131536;27;19963;-78
2022/10/11 09:51:32;;;;;;;;;;;;;;;;;;5118209;27;19923;-79
2022/10/11 09:54:01;;;;;;;;;;;;;;;;;;5137979;27;19919;-78
2022/10/11 09:56:27;;;;;;;;;;;;;;;;;;5132203;27;20327;-76
2022/10/11 09:59:19;;;;;;;;;;;;;;;;;;5128530;27;20259;-78
2022/10/11 10:01:45;;;;;;;;;;;;;;;;;;5103889;27;20339;-78
2022/10/11 10:04:18;;;;;;;;;;;;;;;;;;5129112;27;19915;-77
2022/10/11 10:06:44;;;;;;;;;;;;;;;;;;5132374;27;19925;-76
2022/10/11 10:09:26;;;;;;;;;;;;;;;;;;5133112;27;19919;-76
2022/10/11 10:11:52;;;;;;;;;;;;;;;;;;5116722;27;19966;-78
2022/10/11 10:14:18;;;;;;;;;;;;;;;;;;5154243;27;19922;-77
2022/10/11 10:16:44;;;;;;;;;;;;;;;;;;5150296;27;20017;-76
2022/10/11 10:19:15;;;;;;;;;;;;;;;;;;5152383;27;19947;-75
2022/10/11 10:21:48;;;;;;;;;;;;;;;;;;5135939;27;20042;-77
2022/10/11 10:24:30;;;;;;;;;;;;;;;;;;5130232;27;19915;-76
2022/10/11 10:27:15;;;;;;;;;;;;;;;;;;5109492;28;19920;-78
2022/10/11 10:29:41;;;;;;;;;;;;;;;;;;5113683;28;20269;-77
2022/10/11 10:32:19;;;;;;;;;;;;;;;;;;5112955;28;19933;-78
2022/10/11 10:34:53;;;;;;;;;;;;;;;;;;5120655;27;19924;-76
2022/10/11 10:37:27;;;;;;;;;;;;;;;;;;5134282;27;19919;-77
2022/10/11 10:39:58;;;;;;;;;;;;;;;;;;5129934;27;20294;-75
2022/10/11 10:42:28;;;;;;;;;;;;;;;;;;5136366;27;19978;-77
2022/10/11 10:44:55;;;;;;;;;;;;;;;;;;5134761;27;20284;-77
2022/10/11 10:47:36;;;;;;;;;;;;;;;;;;5124290;27;19935;-77
2022/10/11 10:50:12;;;;;;;;;;;;;;;;;;5124438;27;19919;-79
2022/10/11 10:52:37;;;;;;;;;;;;;;;;;;5131003;27;19981;-78
2022/10/11 10:55:26;;;;;;;;;;;;;;;;;;5131293;27;20206;-78
2022/10/11 10:58:14;;;;;;;;;;;;;;;;;;5132753;27;19920;-78
2022/10/11 11:00:43;;;;;;;;;;;;;;;;;;5119357;27;20221;-77
2022/10/11 11:03:11;;;;;;;;;;;;;;;;;;5135102;27;19915;-77
2022/10/11 11:05:47;;;;;;;;;;;;;;;;;;5134178;27;19923;-78
2022/10/11 11:08:15;;;;;;;;;;;;;;;;;;5111533;28;19916;-76
2022/10/11 11:10:47;;;;;;;;;;;;;;;;;;5127347;27;19915;-76
2022/10/11 11:13:21;;;;;;;;;;;;;;;;;;5133587;27;19919;-76
2022/10/11 11:15:53;;;;;;;;;;;;;;;;;;5131780;27;19918;-76
2022/10/11 11:18:24;;;;;;;;;;;;;;;;;;5123051;27;19970;-76
2022/10/11 11:21:06;;;;;;;;;;;;;;;;;;5134042;27;19916;-79
2022/10/11 11:23:40;;;;;;;;;;;;;;;;;;5115328;28;19915;-78
2022/10/11 11:26:08;;;;;;;;;;;;;;;;;;5137066;27;20086;-81
2022/10/11 11:28:39;;;;;;;;;;;;;;;;;;5154073;27;19922;-80
2022/10/11 11:31:11;;;;;;;;;;;;;;;;;;5134763;27;19937;-79
2022/10/11 11:33:36;;;;;;;;;;;;;;;;;;5129087;27;19931;-79
2022/10/11 11:36:02;;;;;;;;;;;;;;;;;;5128597;27;20181;-79
2022/10/11 11:38:27;;;;;;;;;;;;;;;;;;5107342;28;19966;-79
2022/10/11 11:41:01;;;;;;;;;;;;;;;;;;5109298;28;19992;-80
2022/10/11 11:43:31;;;;;;;;;;;;;;;;;;5127672;27;19919;-80
2022/10/11 11:45:58;;;;;;;;;;;;;;;;;;5129733;27;19998;-79
2022/10/11 11:48:24;;;;;;;;;;;;;;;;;;5128950;27;20241;-80
2022/10/11 11:50:59;;;;;;;;;;;;;;;;;;5111403;27;19996;-79
2022/10/11 11:53:31;;;;;;;;;;;;;;;;;;5129453;27;19916;-79
2022/10/11 11:56:04;;;;;;;;;;;;;;;;;;5115123;27;19915;-79
2022/10/11 11:58:44;;;;;;;;;;;;;;;;;;5132536;27;20018;-78
2022/10/11 12:01:30;;;;;;;;;;;;;;;;;;5133786;27;19916;-79
2022/10/11 12:03:57;;;;;;;;;;;;;;;;;;5132370;27;19915;-79
2022/10/11 12:06:24;;;;;;;;;;;;;;;;;;5133268;27;20382;-79
2022/10/11 12:08:55;;;;;;;;;;;;;;;;;;5134319;27;19964;-79
2022/10/11 12:11:23;;;;;;;;;;;;;;;;;;5137578;27;20006;-79
2022/10/11 12:13:49;;;;;;;;;;;;;;;;;;5135510;27;19958;-79
2022/10/11 12:16:15;;;;;;;;;;;;;;;;;;5134555;27;19915;-79
2022/10/11 12:18:59;;;;;;;;;;;;;;;;;;5135699;27;19924;-78
2022/10/11 12:21:31;;;;;;;;;;;;;;;;;;5116348;27;20013;-79
2022/10/11 12:23:58;;;;;;;;;;;;;;;;;;5133630;27;20008;-79
2022/10/11 12:26:26;;;;;;;;;;;;;;;;;;5147530;27;19919;-78
2022/10/11 12:29:10;;;;;;;;;;;;;;;;;;5154333;27;19915;-79
2022/10/11 12:31:35;;;;;;;;;;;;;;;;;;5151020;27;19919;-79
2022/10/11 12:34:00;;;;;;;;;;;;;;;;;;5155020;27;19934;-78
2022/10/11 12:36:35;;;;;;;;;;;;;;;;;;5155368;27;20225;-78
2022/10/11 12:39:29;;;;;;;;;;;;;;;;;;5156111;27;19915;-79
2022/10/11 12:42:07;;;;;;;;;;;;;;;;;;5155374;27;19915;-79
2022/10/11 12:44:32;;;;;;;;;;;;;;;;;;5136394;27;19916;-80
2022/10/11 12:47:04;;;;;;;;;;;;;;;;;;5154469;27;19923;-79
2022/10/11 12:49:40;;;;;;;;;;;;;;;;;;5154106;27;20236;-79
2022/10/11 12:52:15;;;;;;;;;;;;;;;;;;5135278;27;19915;-79
2022/10/11 12:54:53;;;;;;;;;;;;;;;;;;5153870;27;19915;-78
2022/10/11 12:57:37;;;;;;;;;;;;;;;;;;5154757;27;19958;-79
2022/10/11 13:00:17;;;;;;;;;;;;;;;;;;5154817;27;19915;-79
2022/10/11 13:02:43;;;;;;;;;;;;;;;;;;5152659;27;19916;-80
2022/10/11 13:05:17;;;;;;;;;;;;;;;;;;5138217;27;20059;-80
2022/10/11 13:07:42;;;;;;;;;;;;;;;;;;5155820;27;19922;-79
2022/10/11 13:10:11;;;;;;;;;;;;;;;;;;5156261;27;19915;-79
2022/10/11 13:12:39;;;;;;;;;;;;;;;;;;5156384;27;20023;-79
2022/10/11 13:15:08;;;;;;;;;;;;;;;;;;5157006;27;19915;-79
2022/10/11 13:17:34;;;;;;;;;;;;;;;;;;5155737;27;19942;-79
2022/10/11 13:20:01;;;;;;;;;;;;;;;;;;5155729;27;19951;-78
2022/10/11 13:22:26;;;;;;;;;;;;;;;;;;5156262;27;19919;-79
2022/10/11 13:24:54;;;;;;;;;;;;;;;;;;5155663;27;20358;-79
2022/10/11 13:27:20;;;;;;;;;;;;;;;;;;5156877;27;19915;-79
2022/10/11 13:29:45;;;;;;;;;;;;;;;;;;5155784;27;19921;-79
2022/10/11 13:32:12;;;;;;;;;;;;;;;;;;5155165;27;20009;-79
2022/10/11 13:34:38;;;;;;;;;;;;;;;;;;5155783;27;19915;-79
2022/10/11 13:37:03;;;;;;;;;;;;;;;;;;5155798;27;20251;-78
2022/10/11 13:39:30;;;;;;;;;;;;;;;;;;5157150;27;19918;-78
2022/10/11 13:41:55;;;;;;;;;;;;;;;;;;5155504;27;19915;-79
2022/10/11 13:44:21;;;;;;;;;;;;;;;;;;5155660;27;19915;-79
2022/10/11 13:46:46;;;;;;;;;;;;;;;;;;5155074;27;19915;-78
2022/10/11 13:49:28;;;;;;;;;;;;;;;;;;5155328;27;19915;-78
2022/10/11 13:52:05;;;;;;;;;;;;;;;;;;5137795;27;19911;-81
2022/10/11 13:54:49;;;;;;;;;;;;;;;;;;5156250;27;20376;-79
2022/10/11 13:57:14;;;;;;;;;;;;;;;;;;5155006;27;20013;-80
2022/10/11 13:59:41;;;;;;;;;;;;;;;;;;5154820;27;19915;-79
2022/10/11 14:02:10;;;;;;;;;;;;;;;;;;5137777;27;19915;-80
2022/10/11 14:04:39;;;;;;;;;;;;;;;;;;5155010;27;19963;-79
2022/10/11 14:07:04;;;;;;;;;;;;;;;;;;5154677;27;19921;-82
2022/10/11 14:09:33;;;;;;;;;;;;;;;;;;5154814;27;19997;-78
2022/10/11 14:12:17;;;;;;;;;;;;;;;;;;5154919;27;19915;-77
2022/10/11 14:14:43;;;;;;;;;;;;;;;;;;5155220;27;20009;-77
2022/10/11 14:17:12;;;;;;;;;;;;;;;;;;5154947;27;20068;-77
2022/10/11 14:19:38;;;;;;;;;;;;;;;;;;5154711;27;19956;-77
2022/10/11 14:22:03;;;;;;;;;;;;;;;;;;5154792;27;20015;-77
2022/10/11 14:24:29;;;;;;;;;;;;;;;;;;5156630;27;19915;-77
2022/10/11 14:26:55;;;;;;;;;;;;;;;;;;5154628;27;20364;-78
2022/10/11 14:29:27;;;;;;;;;;;;;;;;;;5155687;27;19938;-77
2022/10/11 14:31:55;;;;;;;;;;;;;;;;;;5137585;27;19972;-78
2022/10/11 14:34:21;;;;;;;;;;;;;;;;;;5154666;27;19922;-77
2022/10/11 14:36:46;;;;;;;;;;;;;;;;;;5154633;27;20324;-77
2022/10/11 14:39:16;;;;;;;;;;;;;;;;;;5154795;27;20010;-77
2022/10/11 14:41:41;;;;;;;;;;;;;;;;;;5154352;27;19923;-77
2022/10/11 14:44:07;;;;;;;;;;;;;;;;;;5154610;27;20251;-77
2022/10/11 14:46:34;;;;;;;;;;;;;;;;;;5156084;27;20018;-77
2022/10/11 14:48:59;;;;;;;;;;;;;;;;;;5156413;27;19915;-77
2022/10/11 14:51:26;;;;;;;;;;;;;;;;;;5155726;27;19915;-77
2022/10/11 14:53:51;;;;;;;;;;;;;;;;;;5156257;27;19950;-77
2022/10/11 14:56:17;;;;;;;;;;;;;;;;;;5154624;27;19922;-77
2022/10/11 14:58:42;;;;;;;;;;;;;;;;;;5155472;27;19919;-77
2022/10/11 15:01:14;;;;;;;;;;;;;;;;;;5154833;27;19958;-77
2022/10/11 15:03:39;;;;;;;;;;;;;;;;;;5154916;27;19950;-77
2022/10/11 15:06:05;;;;;;;;;;;;;;;;;;5155872;27;19975;-77
2022/10/11 15:08:30;;;;;;;;;;;;;;;;;;5137055;27;19915;-78
2022/10/11 15:10:55;;;;;;;;;;;;;;;;;;5155491;27;19922;-78
2022/10/11 15:13:21;;;;;;;;;;;;;;;;;;5155812;27;19956;-78
2022/10/11 15:15:46;;;;;;;;;;;;;;;;;;5156064;27;19915;-77
2022/10/11 15:18:12;;;;;;;;;;;;;;;;;;5154379;27;19915;-78
2022/10/11 15:20:38;;;;;;;;;;;;;;;;;;5155492;27;19958;-77
2022/10/11 15:23:03;;;;;;;;;;;;;;;;;;5155485;27;19922;-77
2022/10/11 15:25:29;;;;;;;;;;;;;;;;;;5155887;27;19915;-77
2022/10/11 15:27:54;;;;;;;;;;;;;;;;;;5158004;27;19955;-78
2022/10/11 15:30:20;;;;;;;;;;;;;;;;;;5159585;27;19936;-77
2022/10/11 15:32:46;;;;;;;;;;;;;;;;;;5159755;27;19977;-77
2022/10/11 15:35:11;;;;;;;;;;;;;;;;;;5158163;27;20315;-77
2022/10/11 15:37:37;;;;;;;;;;;;;;;;;;5159702;27;19915;-77
2022/10/11 15:40:05;;;;;;;;;;;;;;;;;;5159043;27;19915;-77
2022/10/11 15:42:30;;;;;;;;;;;;;;;;;;5157641;27;20029;-77
2022/10/11 15:44:55;;;;;;;;;;;;;;;;;;5159025;27;19934;-77
2022/10/11 15:47:21;;;;;;;;;;;;;;;;;;5157780;27;19986;-77
2022/10/11 15:49:46;;;;;;;;;;;;;;;;;;5158947;27;19915;-77
2022/10/11 15:52:11;;;;;;;;;;;;;;;;;;5157592;27;19915;-78
2022/10/11 15:54:37;;;;;;;;;;;;;;;;;;5159050;27;19915;-77
2022/10/11 15:57:02;;;;;;;;;;;;;;;;;;5158585;27;19915;-77
2022/10/11 15:59:27;;;;;;;;;;;;;;;;;;5158644;27;19927;-77
2022/10/11 16:01:53;;;;;;;;;;;;;;;;;;5158622;27;19965;-78
2022/10/11 16:04:18;;;;;;;;;;;;;;;;;;5158838;27;20287;-77
2022/10/11 16:06:43;;;;;;;;;;;;;;;;;;5158632;27;19915;-77
2022/10/11 16:09:09;;;;;;;;;;;;;;;;;;5157249;27;19927;-77
2022/10/11 16:11:34;;;;;;;;;;;;;;;;;;5158281;27;20362;-77
2022/10/11 16:13:59;;;;;;;;;;;;;;;;;;5158471;27;19915;-77
2022/10/11 16:16:25;;;;;;;;;;;;;;;;;;5158715;27;19915;-78
2022/10/11 16:18:50;;;;;;;;;;;;;;;;;;5158382;27;19926;-77
2022/10/11 16:21:15;;;;;;;;;;;;;;;;;;5158174;27;19969;-77
2022/10/11 16:23:41;;;;;;;;;;;;;;;;;;5158454;27;20060;-77
2022/10/11 16:26:07;;;;;;;;;;;;;;;;;;5158020;27;20319;-77
2022/10/11 16:28:33;;;;;;;;;;;;;;;;;;5158502;27;19971;-77
2022/10/11 16:30:58;;;;;;;;;;;;;;;;;;5157402;27;19997;-77
2022/10/11 16:33:24;;;;;;;;;;;;;;;;;;5158404;27;20328;-77
2022/10/11 16:35:49;;;;;;;;;;;;;;;;;;5158037;27;19937;-77
2022/10/11 16:38:14;;;;;;;;;;;;;;;;;;5157251;27;19911;-77
2022/10/11 16:40:40;;;;;;;;;;;;;;;;;;5157631;27;19915;-77
2022/10/11 16:43:05;;;;;;;;;;;;;;;;;;5157869;27;20328;-77
2022/10/11 16:45:31;;;;;;;;;;;;;;;;;;5156752;27;20294;-78
2022/10/11 16:47:56;;;;;;;;;;;;;;;;;;5157258;27;19959;-77
2022/10/11 16:50:22;;;;;;;;;;;;;;;;;;5155158;27;19922;-77
2022/10/11 16:52:47;;;;;;;;;;;;;;;;;;5155988;27;20324;-77
2022/10/11 16:55:12;;;;;;;;;;;;;;;;;;5154736;27;19926;-77
2022/10/11 16:57:38;;;;;;;;;;;;;;;;;;5155071;27;19923;-78